LFGA 091030Z AUTO VRB01KT CAVOK 05/04 Q1012

ElémentsDécodage
LFGA Station météo située sur l'aérodrome de COLMAR Houssen
091030Z émis le 09 du mois à 10h30 UTC
AUTO Bulletin édité par un automate
VRB01KT vent de direction variable, 01 noeuds
CAVOK Ceiling And Visibility OK
- Visibilité de 10 Km ou plus
- Pas de nuage au-dessous de 1500m ou au-dessous de l'altitude minimale du secteur la plus élevée (si>1500m) et absence de CB
- pas de temps présent significatif
05/04 température 05°C, point de rosée 04°C
 soit une humidité relative de 93%
Q1012 la pression au niveau de la mer (QNH) est de 1012 hPa